createdAt,value
2018-03-26T00:02:07.787Z,10.40
2018-03-26T00:04:36.080Z,9.97
2018-03-26T00:07:05.384Z,11.35
2018-03-26T00:09:33.825Z,11.07
2018-03-26T00:12:02.093Z,13.03
2018-03-26T00:14:30.429Z,10.45
2018-03-26T00:16:58.721Z,13.03
2018-03-26T00:19:27.025Z,11.97
2018-03-26T00:21:55.293Z,10.60
2018-03-26T00:24:23.631Z,10.97
2018-03-26T00:26:51.920Z,9.87
2018-03-26T00:29:20.225Z,12.87
2018-03-26T00:31:48.500Z,9.90
2018-03-26T00:34:16.827Z,9.52
2018-03-26T00:36:55.103Z,11.23
2018-03-26T00:39:23.454Z,10.67
2018-03-26T00:41:51.752Z,12.60
2018-03-26T00:44:20.031Z,10.70
2018-03-26T00:46:48.352Z,12.37
2018-03-26T00:49:16.884Z,11.77
2018-03-26T00:51:45.195Z,11.37
2018-03-26T00:54:13.488Z,15.95
2018-03-26T00:56:41.799Z,12.33
2018-03-26T00:59:10.077Z,12.84
2018-03-26T01:01:38.417Z,14.83
2018-03-26T01:04:06.696Z,13.10
2018-03-26T01:06:35.002Z,11.37
2018-03-26T01:09:03.294Z,12.40
2018-03-26T01:11:31.576Z,11.35
2018-03-26T01:13:59.840Z,12.20
2018-03-26T01:16:28.189Z,11.60
2018-03-26T01:18:56.485Z,14.93
2018-03-26T01:21:24.771Z,11.17
2018-03-26T01:23:53.147Z,11.87
2018-03-26T01:26:21.432Z,12.90
2018-03-26T01:28:49.699Z,9.98
2018-03-26T01:31:18.019Z,13.52
2018-03-26T01:33:46.345Z,11.27
2018-03-26T01:36:14.665Z,11.40
2018-03-26T01:38:43.010Z,11.90
2018-03-26T01:41:11.366Z,10.90
2018-03-26T01:43:39.663Z,12.70
2018-03-26T01:46:07.959Z,9.73
2018-03-26T01:48:36.242Z,10.60
2018-03-26T01:51:04.905Z,14.93
2018-03-26T01:53:33.208Z,12.70
2018-03-26T01:56:01.467Z,10.40
2018-03-26T01:58:29.743Z,11.57
2018-03-26T02:00:58.022Z,9.98
2018-03-26T02:03:26.335Z,14.07
2018-03-26T02:05:54.883Z,11.80
2018-03-26T02:08:23.181Z,12.40
2018-03-26T02:10:51.466Z,10.83
2018-03-26T02:13:19.807Z,11.97
2018-03-26T02:15:48.762Z,10.93
2018-03-26T02:18:17.848Z,11.18
2018-03-26T02:20:46.102Z,10.60
2018-03-26T02:23:14.414Z,12.50
2018-03-26T02:25:42.707Z,9.83
2018-03-26T02:28:10.980Z,10.60
2018-03-26T02:30:39.271Z,11.30
2018-03-26T02:33:07.564Z,12.90
2018-03-26T02:35:35.834Z,11.23
2018-03-26T02:38:04.843Z,11.77
2018-03-26T02:40:33.132Z,10.27
2018-03-26T02:43:01.412Z,11.70
2018-03-26T02:45:29.696Z,12.00
2018-03-26T02:47:57.995Z,13.20
2018-03-26T02:50:26.324Z,14.00
2018-03-26T02:52:54.578Z,11.47
2018-03-26T02:55:22.902Z,13.07
2018-03-26T02:57:51.173Z,12.37
2018-03-26T03:00:19.483Z,12.35
2018-03-26T03:02:47.956Z,11.87
2018-03-26T03:05:16.258Z,12.13
2018-03-26T03:07:44.514Z,13.27
2018-03-26T03:10:12.821Z,10.60
2018-03-26T03:12:41.128Z,10.67
2018-03-26T03:15:09.522Z,16.33
2018-03-26T03:17:37.815Z,13.67
2018-03-26T03:20:06.096Z,16.60
2018-03-26T03:22:34.437Z,12.93
2018-03-26T03:25:03.303Z,10.57
2018-03-26T03:27:31.560Z,11.83
2018-03-26T03:29:59.853Z,13.57
2018-03-26T03:32:28.156Z,11.80
2018-03-26T03:34:56.436Z,11.60
2018-03-26T03:37:24.727Z,14.10
2018-03-26T03:39:53.011Z,15.83
2018-03-26T03:42:21.292Z,12.05
2018-03-26T03:44:49.615Z,10.80
2018-03-26T03:47:17.932Z,9.77
2018-03-26T03:49:46.197Z,10.47
2018-03-26T03:52:14.490Z,15.80
2018-03-26T03:54:42.791Z,12.40
2018-03-26T03:57:11.116Z,10.37
2018-03-26T03:59:39.445Z,11.23
2018-03-26T04:02:07.767Z,9.90
2018-03-26T04:04:36.077Z,10.63
2018-03-26T04:07:04.364Z,9.17
2018-03-26T04:09:32.684Z,11.18
2018-03-26T04:12:01.032Z,14.07
2018-03-26T04:14:29.298Z,11.43
2018-03-26T04:16:57.651Z,9.17
2018-03-26T04:19:25.944Z,9.38
2018-03-26T04:21:54.266Z,10.50
2018-03-26T04:24:23.132Z,10.32
2018-03-26T04:26:51.425Z,9.53
2018-03-26T04:29:19.701Z,9.30
2018-03-26T04:31:48.002Z,11.80
2018-03-26T04:34:16.271Z,13.77
2018-03-26T04:36:44.591Z,12.77
2018-03-26T04:39:12.874Z,10.85
2018-03-26T04:41:41.249Z,11.20
2018-03-26T04:44:09.512Z,11.85
2018-03-26T04:46:37.806Z,10.30
2018-03-26T04:49:06.115Z,13.67
2018-03-26T04:51:34.366Z,15.43
2018-03-26T04:54:02.683Z,13.00
2018-03-26T04:56:30.987Z,11.02
2018-03-26T04:58:59.274Z,11.47
2018-03-26T05:01:27.540Z,9.60
2018-03-26T05:03:55.874Z,11.90
2018-03-26T05:06:24.150Z,13.80
2018-03-26T05:08:52.544Z,11.93
2018-03-26T05:11:20.800Z,9.88
2018-03-26T05:13:49.127Z,11.07
2018-03-26T05:16:17.448Z,13.20
2018-03-26T05:18:45.744Z,10.60
2018-03-26T05:21:14.032Z,11.93
2018-03-26T05:23:43.317Z,14.20
2018-03-26T05:26:11.755Z,15.65
2018-03-26T05:28:40.077Z,11.50
2018-03-26T05:31:08.406Z,13.20
2018-03-26T05:33:36.686Z,12.13
2018-03-26T05:36:05.076Z,16.65
2018-03-26T05:38:33.365Z,12.87
2018-03-26T05:41:01.678Z,10.27
2018-03-26T05:43:29.981Z,11.67
2018-03-26T05:45:58.279Z,11.77
2018-03-26T05:48:26.587Z,11.77
2018-03-26T05:50:54.868Z,12.33
2018-03-26T05:53:23.145Z,10.60
2018-03-26T05:55:51.488Z,13.17
2018-03-26T05:58:19.744Z,9.87
2018-03-26T06:00:48.106Z,12.37
2018-03-26T06:03:16.391Z,16.77
2018-03-26T06:05:44.721Z,17.50
2018-03-26T06:08:13.014Z,12.70
2018-03-26T06:10:41.314Z,13.10
2018-03-26T06:13:09.622Z,11.86
2018-03-26T06:15:38.934Z,13.57
2018-03-26T06:18:07.288Z,13.30
2018-03-26T06:20:35.655Z,20.67
2018-03-26T06:23:04.952Z,19.08
2018-03-26T06:25:34.857Z,15.73
2018-03-26T06:28:03.142Z,19.83
2018-03-26T06:30:31.526Z,16.40
2018-03-26T06:32:59.779Z,16.10
2018-03-26T06:35:28.081Z,17.80
2018-03-26T06:40:57.986Z,20.43
2018-03-26T06:43:26.242Z,18.67
2018-03-26T06:45:54.644Z,17.30
2018-03-26T06:48:22.938Z,21.62
2018-03-26T06:50:51.332Z,17.62
2018-03-26T06:53:19.788Z,20.53
2018-03-26T06:55:48.087Z,21.37
2018-03-26T06:58:16.403Z,15.07
2018-03-26T07:00:44.712Z,16.33
2018-03-26T07:03:13.089Z,40.55
2018-03-26T07:05:41.397Z,14.90
2018-03-26T07:11:05.603Z,23.90
2018-03-26T07:13:34.787Z,16.57
2018-03-26T07:16:03.092Z,16.00
2018-03-26T07:18:31.449Z,16.10
2018-03-26T07:20:59.920Z,30.07
2018-03-26T07:23:28.240Z,21.10
2018-03-26T07:25:59.939Z,16.27
2018-03-26T07:28:29.235Z,19.02
2018-03-26T07:30:57.610Z,15.77
2018-03-26T07:33:25.978Z,15.67
2018-03-26T07:35:54.280Z,14.60
2018-03-26T07:38:22.665Z,13.88
2018-03-26T07:40:50.990Z,16.50
2018-03-26T07:43:19.447Z,19.37
2018-03-26T07:45:47.821Z,18.40
2018-03-26T07:48:16.205Z,19.23
2018-03-26T07:50:44.591Z,21.50
2018-03-26T07:53:12.911Z,19.43
2018-03-26T07:55:41.295Z,25.93
2018-03-26T07:58:09.597Z,21.67
2018-03-26T08:00:37.945Z,24.53
2018-03-26T08:03:06.485Z,23.97
2018-03-26T08:05:34.790Z,24.92
2018-03-26T08:08:03.504Z,22.77
2018-03-26T08:10:34.507Z,21.50
2018-03-26T08:13:03.132Z,24.63
2018-03-26T08:15:31.514Z,22.73
2018-03-26T08:17:59.875Z,26.12
2018-03-26T08:20:28.156Z,26.27
2018-03-26T08:22:56.498Z,25.23
2018-03-26T08:25:24.815Z,28.20
2018-03-26T08:27:53.960Z,27.60
2018-03-26T08:30:22.263Z,30.27
2018-03-26T08:32:50.551Z,31.33
2018-03-26T08:35:18.841Z,34.27
2018-03-26T08:37:47.192Z,36.80
2018-03-26T08:40:15.564Z,44.07
2018-03-26T08:42:43.873Z,33.13
2018-03-26T08:45:12.194Z,34.27
2018-03-26T08:47:40.508Z,39.57
2018-03-26T08:50:09.750Z,37.60
2018-03-26T08:52:37.974Z,42.07
2018-03-26T08:55:06.424Z,39.70
2018-03-26T08:57:34.745Z,42.10
2018-03-26T09:00:03.117Z,39.97
2018-03-26T09:02:31.539Z,40.60
2018-03-26T09:05:00.049Z,42.10
2018-03-26T09:07:28.472Z,40.20
2018-03-26T09:09:56.862Z,41.63
2018-03-26T09:12:25.152Z,39.30
2018-03-26T09:14:53.428Z,42.73
2018-03-26T09:17:21.837Z,41.70
2018-03-26T09:19:50.152Z,39.33
2018-03-26T09:22:18.668Z,41.50
2018-03-26T09:24:47.043Z,38.88
2018-03-26T09:27:16.647Z,44.30
2018-03-26T09:29:44.984Z,38.47
2018-03-26T09:32:13.457Z,37.60
2018-03-26T09:34:41.839Z,42.07
2018-03-26T09:37:10.188Z,39.47
2018-03-26T09:39:38.508Z,49.95
2018-03-26T09:42:07.250Z,39.40
2018-03-26T09:44:35.619Z,40.13
2018-03-26T09:47:03.936Z,39.50
2018-03-26T09:49:32.961Z,41.53
2018-03-26T09:52:01.275Z,42.23
2018-03-26T09:54:29.603Z,38.40
2018-03-26T09:56:57.935Z,42.60
2018-03-26T09:59:26.760Z,39.87
2018-03-26T10:01:57.962Z,39.30
2018-03-26T10:04:26.308Z,42.67
2018-03-26T10:06:54.613Z,38.97
2018-03-26T10:09:23.033Z,40.37
2018-03-26T10:11:51.427Z,41.50
2018-03-26T10:14:19.783Z,43.73
2018-03-26T10:16:48.089Z,43.30
2018-03-26T10:19:16.636Z,38.93
2018-03-26T10:21:44.941Z,40.03
2018-03-26T10:24:13.290Z,39.47
2018-03-26T10:26:41.698Z,38.70
2018-03-26T10:29:10.053Z,42.75
2018-03-26T10:31:38.426Z,43.10
2018-03-26T10:34:06.804Z,40.73
2018-03-26T10:36:35.105Z,40.47
2018-03-26T10:39:03.653Z,38.50
2018-03-26T10:41:32.031Z,40.23
2018-03-26T10:44:00.408Z,56.20
2018-03-26T10:46:28.726Z,39.73
2018-03-26T10:48:57.081Z,39.83
2018-03-26T10:51:25.464Z,40.47
2018-03-26T10:56:46.830Z,42.33
2018-03-26T10:59:16.440Z,42.90
2018-03-26T11:01:44.772Z,42.20
2018-03-26T11:04:14.436Z,43.50
2018-03-26T11:06:42.803Z,41.37
2018-03-26T11:09:11.226Z,37.35
2018-03-26T11:11:39.675Z,40.03
2018-03-26T11:14:08.379Z,43.10
2018-03-26T11:16:36.673Z,41.50
2018-03-26T11:19:05.609Z,44.22
2018-03-26T11:21:33.920Z,41.00
2018-03-26T11:24:02.245Z,43.47
2018-03-26T11:26:30.614Z,43.97
2018-03-26T11:28:58.923Z,39.50
2018-03-26T11:31:27.247Z,46.90
2018-03-26T11:33:55.714Z,44.53
2018-03-26T11:36:24.120Z,44.07
2018-03-26T11:38:55.488Z,42.62
2018-03-26T11:41:25.571Z,42.30
2018-03-26T11:43:58.594Z,44.33
2018-03-26T11:46:26.973Z,50.57
2018-03-26T11:48:55.493Z,44.63
2018-03-26T11:51:23.887Z,43.93
2018-03-26T11:53:52.173Z,59.43
2018-03-26T11:56:20.525Z,45.43
2018-03-26T11:58:48.852Z,43.70
2018-03-26T12:01:17.164Z,48.77
2018-03-26T12:03:45.684Z,43.40
2018-03-26T12:06:14.059Z,48.72
2018-03-26T12:08:42.460Z,46.17
2018-03-26T12:11:11.553Z,47.00
2018-03-26T12:13:39.885Z,48.00
2018-03-26T12:16:08.187Z,42.00
2018-03-26T12:18:36.538Z,41.67
2018-03-26T12:21:04.888Z,40.23
2018-03-26T12:23:45.048Z,40.97
2018-03-26T12:26:13.515Z,41.03
2018-03-26T12:28:53.602Z,43.50
2018-03-26T12:31:21.950Z,49.17
2018-03-26T12:36:53.810Z,54.17
2018-03-26T12:39:22.793Z,51.73
2018-03-26T12:41:51.095Z,43.93
2018-03-26T12:44:31.328Z,39.78
2018-03-26T12:46:59.682Z,43.57
2018-03-26T12:49:28.034Z,44.93
2018-03-26T12:52:07.997Z,41.90
2018-03-26T12:54:36.319Z,43.47
2018-03-26T12:57:17.076Z,40.90
2018-03-26T12:59:45.455Z,44.20
2018-03-26T13:02:29.683Z,45.17
2018-03-26T13:04:58.112Z,39.55
2018-03-26T13:07:26.463Z,40.27
2018-03-26T13:09:54.800Z,40.92
2018-03-26T13:12:23.179Z,42.70
2018-03-26T13:14:51.531Z,37.92
2018-03-26T13:17:20.594Z,43.73
2018-03-26T13:19:48.978Z,42.90
2018-03-26T13:22:17.305Z,39.93
2018-03-26T13:24:45.664Z,39.67
2018-03-26T13:27:14.017Z,36.27
2018-03-26T13:29:42.372Z,39.58
2018-03-26T13:32:10.709Z,41.00
2018-03-26T13:34:39.120Z,38.87
2018-03-26T13:37:07.480Z,38.78
2018-03-26T13:39:35.850Z,46.23
2018-03-26T13:42:04.190Z,36.30
2018-03-26T13:44:33.368Z,38.50
2018-03-26T13:47:02.418Z,43.42
2018-03-26T13:49:30.994Z,42.03
2018-03-26T13:51:59.324Z,51.87
2018-03-26T13:54:27.827Z,37.20
2018-03-26T13:56:56.129Z,38.70
2018-03-26T13:59:24.536Z,39.97
2018-03-26T14:01:53.351Z,39.77
2018-03-26T14:04:21.706Z,45.67
2018-03-26T14:06:50.152Z,43.77
2018-03-26T14:09:30.205Z,40.42
2018-03-26T14:12:10.597Z,44.33
2018-03-26T14:17:49.680Z,38.67
2018-03-26T14:20:18.220Z,40.70
2018-03-26T14:22:46.556Z,45.00
2018-03-26T14:25:14.876Z,40.03
2018-03-26T14:27:43.173Z,40.73
2018-03-26T14:30:11.529Z,40.10
2018-03-26T14:32:40.733Z,39.20
2018-03-26T14:38:11.239Z,42.10
2018-03-26T14:40:39.611Z,41.00
2018-03-26T14:43:08.001Z,46.57
2018-03-26T14:45:36.849Z,46.07
2018-03-26T14:48:05.226Z,46.90
2018-03-26T14:50:33.596Z,42.97
2018-03-26T14:53:01.999Z,46.80
2018-03-26T14:55:30.861Z,48.03
2018-03-26T14:57:59.232Z,52.40
2018-03-26T15:00:27.531Z,52.63
2018-03-26T15:02:56.798Z,48.63
2018-03-26T15:05:25.134Z,47.13
2018-03-26T15:07:53.803Z,49.10
2018-03-26T15:10:22.817Z,61.40
2018-03-26T15:12:51.751Z,46.27
2018-03-26T15:15:20.480Z,44.60
2018-03-26T15:17:48.823Z,49.40
2018-03-26T15:20:17.251Z,44.17
2018-03-26T15:22:45.637Z,42.93
2018-03-26T15:25:14.055Z,44.08
2018-03-26T15:27:42.432Z,45.80
2018-03-26T15:30:11.110Z,45.00
2018-03-26T15:32:39.442Z,43.27
2018-03-26T15:35:07.774Z,48.17
2018-03-26T15:37:36.162Z,47.60
2018-03-26T15:40:05.044Z,50.23
2018-03-26T15:42:33.417Z,44.80
2018-03-26T15:45:01.790Z,42.20
2018-03-26T15:47:30.179Z,44.87
2018-03-26T15:49:58.502Z,48.22
2018-03-26T15:52:26.856Z,42.57
2018-03-26T15:54:55.416Z,43.63
2018-03-26T15:57:23.724Z,45.13
2018-03-26T15:59:52.082Z,43.13
2018-03-26T16:02:21.580Z,44.28
2018-03-26T16:04:49.989Z,44.90
2018-03-26T16:07:18.233Z,42.87
2018-03-26T16:09:46.560Z,41.87
2018-03-26T16:12:14.856Z,45.23
2018-03-26T16:14:44.008Z,11.57
2018-03-26T16:17:12.390Z,18.05
2018-03-26T16:19:40.835Z,33.33
2018-03-26T16:22:09.133Z,38.05
2018-03-26T16:24:37.475Z,40.47
2018-03-26T16:27:05.919Z,42.63
2018-03-26T16:29:34.392Z,42.50
2018-03-26T16:32:03.477Z,43.87
2018-03-26T16:34:32.516Z,44.53
2018-03-26T16:37:01.140Z,39.43
2018-03-26T16:39:30.675Z,42.10
2018-03-26T16:42:11.019Z,40.17
2018-03-26T16:44:39.393Z,44.43
2018-03-26T16:47:07.733Z,44.53
2018-03-26T16:49:36.144Z,53.30
2018-03-26T16:52:04.524Z,41.33
2018-03-26T16:54:32.968Z,41.40
2018-03-26T16:57:01.320Z,43.22
2018-03-26T16:59:29.586Z,47.00
2018-03-26T17:01:57.946Z,40.60
2018-03-26T17:04:26.262Z,40.87
2018-03-26T17:06:54.677Z,42.17
2018-03-26T17:09:22.977Z,37.58
2018-03-26T17:11:51.542Z,35.73
2018-03-26T17:14:20.554Z,35.33
2018-03-26T17:16:48.896Z,27.90
2018-03-26T17:19:17.973Z,28.50
2018-03-26T17:21:46.264Z,29.60
2018-03-26T17:24:14.569Z,28.03
2018-03-26T17:26:42.899Z,23.97
2018-03-26T17:29:11.211Z,23.47
2018-03-26T17:31:39.525Z,25.10
2018-03-26T17:34:08.209Z,22.90
2018-03-26T17:36:36.596Z,26.37
2018-03-26T17:39:05.920Z,25.35
2018-03-26T17:41:37.452Z,22.80
2018-03-26T17:44:06.869Z,22.90
2018-03-26T17:46:35.178Z,21.00
2018-03-26T17:49:03.748Z,25.23
2018-03-26T17:51:32.927Z,27.07
2018-03-26T17:54:01.266Z,25.70
2018-03-26T17:56:29.597Z,24.10
2018-03-26T17:58:57.950Z,30.45
2018-03-26T18:01:26.256Z,29.30
2018-03-26T18:03:54.586Z,29.13
2018-03-26T18:06:22.887Z,32.42
2018-03-26T18:08:51.245Z,23.77
2018-03-26T18:11:19.573Z,34.20
2018-03-26T18:13:47.943Z,25.47
2018-03-26T18:16:16.232Z,24.60
2018-03-26T18:18:44.555Z,25.08
2018-03-26T18:21:12.895Z,24.93
2018-03-26T18:23:42.005Z,22.57
2018-03-26T18:26:10.328Z,23.13
2018-03-26T18:28:38.635Z,19.00
2018-03-26T18:31:06.901Z,18.13
2018-03-26T18:33:35.282Z,19.43
2018-03-26T18:36:03.849Z,20.53
2018-03-26T18:38:32.239Z,20.83
2018-03-26T18:41:00.577Z,22.23
2018-03-26T18:43:28.936Z,22.65
2018-03-26T18:45:57.235Z,21.90
2018-03-26T18:48:25.614Z,20.50
2018-03-26T18:50:53.968Z,22.67
2018-03-26T18:53:22.327Z,19.02
2018-03-26T18:55:50.650Z,26.27
2018-03-26T18:58:18.947Z,18.60
2018-03-26T19:00:47.336Z,21.83
2018-03-26T19:03:15.670Z,21.13
2018-03-26T19:05:43.977Z,19.80
2018-03-26T19:08:12.249Z,18.08
2018-03-26T19:10:40.600Z,23.43
2018-03-26T19:13:08.890Z,27.40
2018-03-26T19:15:37.301Z,39.30
2018-03-26T19:18:05.654Z,28.10
2018-03-26T19:20:34.074Z,33.90
2018-03-26T19:23:02.438Z,26.63
2018-03-26T19:25:30.732Z,28.17
2018-03-26T19:27:59.034Z,25.90
2018-03-26T19:30:27.370Z,28.40
2018-03-26T19:32:55.962Z,25.47
2018-03-26T19:35:24.312Z,25.87
2018-03-26T19:37:52.679Z,27.43
2018-03-26T19:40:20.996Z,31.45
2018-03-26T19:42:50.102Z,27.00
2018-03-26T19:45:19.392Z,34.70
2018-03-26T19:47:47.725Z,26.87
2018-03-26T19:50:16.323Z,26.42
2018-03-26T19:52:44.894Z,31.90
2018-03-26T19:55:13.159Z,30.17
2018-03-26T19:57:41.503Z,32.37
2018-03-26T20:00:10.326Z,32.16
2018-03-26T20:02:38.666Z,30.25
2018-03-26T20:05:07.070Z,26.70
2018-03-26T20:07:35.396Z,29.70
2018-03-26T20:10:04.874Z,35.36
2018-03-26T20:12:33.171Z,33.50
2018-03-26T20:15:01.468Z,34.03
2018-03-26T20:17:29.799Z,31.43
2018-03-26T20:19:58.109Z,31.70
2018-03-26T20:22:26.442Z,36.10
2018-03-26T20:24:54.729Z,38.73
2018-03-26T20:27:23.136Z,34.40
2018-03-26T20:29:51.417Z,35.07
2018-03-26T20:32:19.798Z,36.67
2018-03-26T20:34:48.420Z,36.20
2018-03-26T20:37:16.761Z,37.57
2018-03-26T20:39:45.020Z,36.63
2018-03-26T20:42:13.341Z,32.28
2018-03-26T20:44:41.755Z,35.17
2018-03-26T20:47:10.093Z,38.80
2018-03-26T20:49:38.416Z,37.50
2018-03-26T20:52:06.704Z,35.30
2018-03-26T20:54:35.336Z,51.40
2018-03-26T20:57:03.645Z,46.07
2018-03-26T20:59:31.944Z,38.47
2018-03-26T21:02:00.452Z,39.73
2018-03-26T21:04:28.774Z,43.87
2018-03-26T21:06:57.067Z,32.90
2018-03-26T21:09:25.434Z,30.97
2018-03-26T21:11:53.776Z,33.60
2018-03-26T21:14:22.193Z,27.47
2018-03-26T21:16:50.468Z,32.00
2018-03-26T21:19:18.764Z,30.27
2018-03-26T21:21:47.143Z,28.93
2018-03-26T21:24:15.471Z,32.08
2018-03-26T21:26:43.806Z,34.87
2018-03-26T21:29:12.164Z,29.80
2018-03-26T21:31:40.449Z,37.13
2018-03-26T21:34:09.488Z,34.00
2018-03-26T21:36:37.792Z,31.60
2018-03-26T21:39:06.197Z,30.40
2018-03-26T21:41:34.486Z,29.33
2018-03-26T21:44:02.751Z,32.30
2018-03-26T21:46:31.204Z,29.65
2018-03-26T21:48:59.546Z,29.47
2018-03-26T21:51:27.867Z,30.47
2018-03-26T21:53:56.157Z,36.17
2018-03-26T21:56:24.532Z,41.63
2018-03-26T21:58:52.857Z,28.73
2018-03-26T22:01:21.210Z,30.00
2018-03-26T22:03:49.521Z,33.83
2018-03-26T22:06:17.892Z,31.10
2018-03-26T22:08:46.230Z,29.60
2018-03-26T22:11:15.362Z,27.13
2018-03-26T22:13:43.642Z,32.63
2018-03-26T22:16:11.994Z,30.65
2018-03-26T22:18:45.319Z,27.33
2018-03-26T22:21:13.636Z,29.67
2018-03-26T22:23:41.917Z,30.88
2018-03-26T22:26:10.244Z,30.02
2018-03-26T22:28:38.561Z,28.83
2018-03-26T22:31:06.880Z,26.43
2018-03-26T22:33:35.185Z,30.10
2018-03-26T22:36:04.196Z,26.87
2018-03-26T22:38:32.516Z,34.83
2018-03-26T22:41:00.793Z,31.53
2018-03-26T22:43:29.186Z,34.73
2018-03-26T22:45:57.495Z,31.87
2018-03-26T22:48:25.780Z,28.13
2018-03-26T22:50:54.127Z,29.33
2018-03-26T22:53:22.442Z,27.90
2018-03-26T22:55:50.713Z,32.05
2018-03-26T22:58:19.091Z,31.62
2018-03-26T23:00:47.379Z,25.37
2018-03-26T23:03:15.728Z,27.13
2018-03-26T23:05:44.024Z,27.10
2018-03-26T23:08:12.341Z,27.30
2018-03-26T23:10:40.652Z,27.13
2018-03-26T23:13:08.952Z,23.60
2018-03-26T23:15:37.221Z,29.17
2018-03-26T23:18:05.597Z,26.10
2018-03-26T23:20:33.884Z,24.13
2018-03-26T23:23:02.244Z,27.17
2018-03-26T23:25:30.527Z,23.93
2018-03-26T23:27:58.863Z,24.80
2018-03-26T23:30:27.715Z,25.37
2018-03-26T23:32:56.069Z,23.55
2018-03-26T23:35:24.349Z,23.73
2018-03-26T23:37:52.663Z,24.20
2018-03-26T23:40:20.987Z,24.73
2018-03-26T23:42:49.363Z,26.90
2018-03-26T23:45:17.725Z,25.27
2018-03-26T23:47:46.021Z,24.93
2018-03-26T23:50:14.332Z,21.70
2018-03-26T23:52:42.617Z,27.50
2018-03-26T23:55:10.927Z,26.52
2018-03-26T23:57:39.252Z,22.90
